createdAt,value
2023-02-05T00:02:11.046Z,7.10
2023-02-05T00:04:39.721Z,6.10
2023-02-05T00:07:08.515Z,7.50
2023-02-05T00:09:37.090Z,5.40
2023-02-05T00:12:05.572Z,5.50
2023-02-05T00:14:34.281Z,4.10
2023-02-05T00:17:02.460Z,5.50
2023-02-05T00:19:30.722Z,4.80
2023-02-05T00:21:59.007Z,5.60
2023-02-05T00:24:27.373Z,4.00
2023-02-05T00:26:55.839Z,6.60
2023-02-05T00:29:23.917Z,8.70
2023-02-05T00:31:53.188Z,5.90
2023-02-05T00:34:21.617Z,5.40
2023-02-05T00:36:49.766Z,4.30
2023-02-05T00:39:19.174Z,5.00
2023-02-05T00:41:49.307Z,5.60
2023-02-05T00:44:17.708Z,6.10
2023-02-05T00:46:45.839Z,7.90
2023-02-05T00:49:14.118Z,6.00
2023-02-05T00:51:42.808Z,7.10
2023-02-05T00:54:11.310Z,7.40
2023-02-05T00:56:39.557Z,5.00
2023-02-05T00:59:07.794Z,5.80
2023-02-05T01:01:36.137Z,5.10
2023-02-05T01:04:04.797Z,9.30
2023-02-05T01:06:33.482Z,9.60
2023-02-05T01:09:02.785Z,7.90
2023-02-05T01:11:31.162Z,8.30
2023-02-05T01:13:59.234Z,10.70
2023-02-05T01:16:27.433Z,6.60
2023-02-05T01:18:56.919Z,6.20
2023-02-05T01:21:25.089Z,7.40
2023-02-05T01:23:55.001Z,9.10
2023-02-05T01:26:23.483Z,8.50
2023-02-05T01:28:51.552Z,11.10
2023-02-05T01:31:20.845Z,8.90
2023-02-05T01:33:49.180Z,10.60
2023-02-05T01:36:18.085Z,8.00
2023-02-05T01:38:46.603Z,8.40
2023-02-05T01:41:14.978Z,10.50
2023-02-05T01:43:43.154Z,11.60
2023-02-05T01:46:24.177Z,9.20
2023-02-05T01:48:56.743Z,11.70
2023-02-05T01:51:28.649Z,9.90
2023-02-05T01:53:57.043Z,14.60
2023-02-05T01:56:32.206Z,10.70
2023-02-05T01:59:09.208Z,9.50
2023-02-05T02:01:40.112Z,7.10
2023-02-05T02:04:11.354Z,4.10
2023-02-05T02:06:39.526Z,6.90
2023-02-05T02:09:09.224Z,7.60
2023-02-05T02:11:41.961Z,5.20
2023-02-05T02:14:12.229Z,5.60
2023-02-05T02:16:41.021Z,6.40
2023-02-05T02:19:33.153Z,9.40
2023-02-05T02:22:18.076Z,9.80
2023-02-05T02:25:14.045Z,8.80
2023-02-05T02:27:45.296Z,9.80
2023-02-05T02:30:44.218Z,13.20
2023-02-05T02:33:27.869Z,13.60
2023-02-05T02:36:08.841Z,9.10
2023-02-05T02:38:51.507Z,8.80
2023-02-05T02:41:36.457Z,6.60
2023-02-05T02:44:23.294Z,9.80
2023-02-05T02:46:57.244Z,11.10
2023-02-05T02:49:36.891Z,11.70
2023-02-05T02:52:08.748Z,13.20
2023-02-05T02:54:40.151Z,13.20
2023-02-05T02:57:10.780Z,16.60
2023-02-05T02:59:41.700Z,14.90
2023-02-05T03:02:13.050Z,13.60
2023-02-05T03:04:45.750Z,15.40
2023-02-05T03:07:25.122Z,12.60
2023-02-05T03:10:03.417Z,17.90
2023-02-05T03:12:31.770Z,14.70
2023-02-05T03:15:00.480Z,13.60
2023-02-05T03:17:30.389Z,17.60
2023-02-05T03:20:24.961Z,18.60
2023-02-05T03:22:53.141Z,20.10
2023-02-05T03:25:23.282Z,19.00
2023-02-05T03:27:55.043Z,17.40
2023-02-05T03:30:31.471Z,17.50
2023-02-05T03:33:26.390Z,19.90
2023-02-05T03:36:10.332Z,18.40
2023-02-05T03:39:09.940Z,21.80
2023-02-05T03:42:01.051Z,20.20
2023-02-05T03:45:14.541Z,14.30
2023-02-05T03:48:14.527Z,14.60
2023-02-05T03:51:14.136Z,14.50
2023-02-05T03:54:12.087Z,11.50
2023-02-05T03:56:50.409Z,13.60
2023-02-05T03:59:20.542Z,8.80
2023-02-05T04:01:49.078Z,11.30
2023-02-05T04:04:17.787Z,8.60
2023-02-05T04:06:48.913Z,14.60
2023-02-05T04:09:17.612Z,10.00
2023-02-05T04:11:46.293Z,9.40
2023-02-05T04:14:14.455Z,16.60
2023-02-05T04:16:43.503Z,13.10
2023-02-05T04:19:12.784Z,15.30
2023-02-05T04:21:41.142Z,12.60
2023-02-05T04:24:09.347Z,21.60
2023-02-05T04:26:37.893Z,15.20
2023-02-05T04:29:07.402Z,25.80
2023-02-05T04:31:40.318Z,30.20
2023-02-05T04:34:08.496Z,20.30
2023-02-05T04:36:40.023Z,14.30
2023-02-05T04:39:08.949Z,10.90
2023-02-05T04:41:37.187Z,8.20
2023-02-05T04:44:06.926Z,7.60
2023-02-05T04:46:35.074Z,8.70
2023-02-05T04:49:03.365Z,9.00
2023-02-05T04:51:31.421Z,8.70
2023-02-05T04:53:59.700Z,11.10
2023-02-05T04:56:28.148Z,7.80
2023-02-05T04:58:56.356Z,11.80
2023-02-05T05:01:24.548Z,9.70
2023-02-05T05:03:52.724Z,10.30
2023-02-05T05:06:21.084Z,9.70
2023-02-05T05:08:49.157Z,10.30
2023-02-05T05:11:19.670Z,7.50
2023-02-05T05:13:49.342Z,10.70
2023-02-05T05:16:17.923Z,8.90
2023-02-05T05:18:46.314Z,11.20
2023-02-05T05:21:14.361Z,8.50
2023-02-05T05:23:42.488Z,7.10
2023-02-05T05:26:12.195Z,8.40
2023-02-05T05:28:40.519Z,8.40
2023-02-05T05:31:16.807Z,8.40
2023-02-05T05:33:45.625Z,11.60
2023-02-05T05:36:14.126Z,5.50
2023-02-05T05:38:43.510Z,6.50
2023-02-05T05:41:53.804Z,8.40
2023-02-05T05:44:21.920Z,7.90
2023-02-05T05:46:50.736Z,9.60
2023-02-05T05:49:18.777Z,6.20
2023-02-05T05:51:46.880Z,8.10
2023-02-05T05:54:15.161Z,7.60
2023-02-05T05:56:45.168Z,11.60
2023-02-05T05:59:13.350Z,15.70
2023-02-05T06:01:41.516Z,11.90
2023-02-05T06:04:09.762Z,10.80
2023-02-05T06:06:38.301Z,11.50
2023-02-05T06:09:06.362Z,12.50
2023-02-05T06:11:34.412Z,10.20
2023-02-05T06:14:02.537Z,11.50
2023-02-05T06:16:30.720Z,10.00
2023-02-05T06:18:58.923Z,10.30
2023-02-05T06:21:27.040Z,10.00
2023-02-05T06:23:55.271Z,9.40
2023-02-05T06:26:23.545Z,11.70
2023-02-05T06:28:51.718Z,8.70
2023-02-05T06:31:19.878Z,9.10
2023-02-05T06:33:48.068Z,8.70
2023-02-05T06:36:16.153Z,6.70
2023-02-05T06:38:44.536Z,8.70
2023-02-05T06:41:12.610Z,8.20
2023-02-05T06:43:40.752Z,9.40
2023-02-05T06:46:09.016Z,9.20
2023-02-05T06:48:37.164Z,10.30
2023-02-05T06:51:05.512Z,12.20
2023-02-05T06:53:33.600Z,14.80
2023-02-05T06:56:01.714Z,10.40
2023-02-05T06:58:29.778Z,9.50
2023-02-05T07:00:57.797Z,7.90
2023-02-05T07:03:26.071Z,7.20
2023-02-05T07:05:54.156Z,8.50
2023-02-05T07:08:22.409Z,7.40
2023-02-05T07:10:50.482Z,6.90
2023-02-05T07:13:18.753Z,7.00
2023-02-05T07:15:47.542Z,7.70
2023-02-05T07:18:15.997Z,7.80
2023-02-05T07:20:45.357Z,7.50
2023-02-05T07:23:13.385Z,10.30
2023-02-05T07:25:41.510Z,7.70
2023-02-05T07:28:10.104Z,11.40
2023-02-05T07:30:38.612Z,9.60
2023-02-05T07:33:06.712Z,7.80
2023-02-05T07:51:03.196Z,13.70
2023-02-05T07:53:31.414Z,11.50
2023-02-05T07:56:04.296Z,12.40
2023-02-05T08:35:03.125Z,14.80
2023-02-05T08:37:31.409Z,13.30
2023-02-05T08:39:59.448Z,13.60
2023-02-05T08:42:27.509Z,12.70
2023-02-05T08:44:58.526Z,11.20
2023-02-05T08:47:27.366Z,11.30
2023-02-05T08:49:55.562Z,9.80
2023-02-05T08:52:24.027Z,10.90
2023-02-05T08:54:52.178Z,12.60
2023-02-05T08:57:20.406Z,9.30
2023-02-05T08:59:48.773Z,9.10
2023-02-05T09:02:17.133Z,13.30
2023-02-05T09:04:45.613Z,16.00
2023-02-05T09:07:13.723Z,14.90
2023-02-05T09:09:41.874Z,19.80
2023-02-05T09:12:12.920Z,15.10
2023-02-05T09:14:41.486Z,13.20
2023-02-05T09:17:10.575Z,12.30
2023-02-05T09:19:40.280Z,12.40
2023-02-05T09:22:09.082Z,10.10
2023-02-05T09:24:38.340Z,11.70
2023-02-05T09:27:06.756Z,11.40
2023-02-05T09:29:35.037Z,15.90
2023-02-05T09:32:03.211Z,12.00
2023-02-05T09:34:32.409Z,11.00
2023-02-05T09:37:00.797Z,8.80
2023-02-05T09:40:13.088Z,8.60
2023-02-05T09:42:44.645Z,8.20
2023-02-05T09:45:36.743Z,12.70
2023-02-05T09:48:10.490Z,8.20
2023-02-05T09:53:16.982Z,11.90
2023-02-05T09:55:47.529Z,9.60
2023-02-05T09:58:19.571Z,12.40
2023-02-05T10:00:49.786Z,25.70
2023-02-05T10:03:30.104Z,43.10
2023-02-05T10:06:11.266Z,19.70
2023-02-05T10:09:02.537Z,14.90
2023-02-05T10:11:52.043Z,15.60
2023-02-05T10:14:26.849Z,14.20
2023-02-05T10:17:17.964Z,10.60
2023-02-05T10:20:07.299Z,12.00
2023-02-05T10:22:47.783Z,11.50
2023-02-05T10:25:33.723Z,11.20
2023-02-05T10:28:20.578Z,8.90
2023-02-05T10:31:07.359Z,12.90
2023-02-05T10:33:56.079Z,13.30
2023-02-05T10:36:26.986Z,10.30
2023-02-05T10:38:57.321Z,8.30
2023-02-05T10:42:19.858Z,8.80
2023-02-05T10:44:53.047Z,11.90
2023-02-05T10:47:45.085Z,6.90
2023-02-05T10:50:25.744Z,9.30
2023-02-05T10:52:53.859Z,31.10
2023-02-05T10:55:22.139Z,23.00
2023-02-05T10:57:50.373Z,16.50
2023-02-05T11:00:23.330Z,13.30
2023-02-05T11:02:55.096Z,14.30
2023-02-05T11:05:38.354Z,17.30
2023-02-05T11:08:32.523Z,14.20
2023-02-05T11:11:01.830Z,11.70
2023-02-05T11:13:30.670Z,14.70
2023-02-05T11:16:08.509Z,14.50
2023-02-05T11:18:41.151Z,13.00
2023-02-05T11:21:10.131Z,11.50
2023-02-05T11:23:40.548Z,8.00
2023-02-05T11:26:21.379Z,6.80
2023-02-05T11:28:50.609Z,7.10
2023-02-05T11:31:25.923Z,8.60
2023-02-05T11:34:09.556Z,8.40
2023-02-05T11:36:48.312Z,12.50
2023-02-05T11:39:37.965Z,12.40
2023-02-05T11:42:22.205Z,11.40
2023-02-05T11:44:54.982Z,17.30
2023-02-05T11:47:37.047Z,12.20
2023-02-05T11:50:18.855Z,12.90
2023-02-05T11:52:47.359Z,12.30
2023-02-05T11:55:32.016Z,14.00
2023-02-05T11:58:06.544Z,15.40
2023-02-05T12:00:35.054Z,13.00
2023-02-05T12:03:06.603Z,15.30
2023-02-05T12:05:42.584Z,18.80
2023-02-05T12:08:23.295Z,15.00
2023-02-05T12:11:15.227Z,19.10
2023-02-05T12:14:05.488Z,19.70
2023-02-05T12:16:47.676Z,25.40
2023-02-05T12:19:23.069Z,33.20
2023-02-05T12:22:13.878Z,18.40
2023-02-05T12:24:51.314Z,16.70
2023-02-05T12:27:28.906Z,16.00
2023-02-05T12:30:15.829Z,17.60
2023-02-05T12:33:01.263Z,15.20
2023-02-05T12:36:05.050Z,12.50
2023-02-05T12:38:42.457Z,10.60
2023-02-05T12:41:53.135Z,5.10
2023-02-05T12:44:49.680Z,4.60
2023-02-05T12:47:42.671Z,9.20
2023-02-05T12:50:14.442Z,7.60
2023-02-05T12:53:27.075Z,5.80
2023-02-05T12:56:46.214Z,9.10
2023-02-05T12:59:33.237Z,16.60
2023-02-05T13:02:20.215Z,7.10
2023-02-05T13:04:54.469Z,3.90
2023-02-05T13:07:32.950Z,5.00
2023-02-05T13:10:13.989Z,6.50
2023-02-05T13:12:48.850Z,6.40
2023-02-05T13:15:25.596Z,12.10
2023-02-05T13:18:02.949Z,9.50
2023-02-05T13:21:01.614Z,13.80
2023-02-05T13:23:49.958Z,13.50
2023-02-05T13:26:25.012Z,6.80
2023-02-05T13:29:15.763Z,10.60
2023-02-05T13:31:55.983Z,17.00
2023-02-05T13:34:26.483Z,11.20
2023-02-05T13:37:17.149Z,9.00
2023-02-05T13:40:10.608Z,13.10
2023-02-05T13:42:47.182Z,12.60
2023-02-05T13:45:57.412Z,21.80
2023-02-05T13:48:44.824Z,14.90
2023-02-05T13:52:00.890Z,13.30
2023-02-05T13:54:49.250Z,30.60
2023-02-05T13:57:32.659Z,17.60
2023-02-05T14:00:01.629Z,12.70
2023-02-05T14:02:50.960Z,15.00
2023-02-05T14:05:37.523Z,20.00
2023-02-05T14:08:16.013Z,28.00
2023-02-05T14:10:45.434Z,19.50
2023-02-05T14:13:34.365Z,13.50
2023-02-05T14:16:24.562Z,12.70
2023-02-05T14:19:01.840Z,18.20
2023-02-05T14:21:29.983Z,14.00
2023-02-05T14:24:23.131Z,15.40
2023-02-05T14:26:56.333Z,18.20
2023-02-05T14:29:48.204Z,18.40
2023-02-05T14:32:28.618Z,26.00
2023-02-05T14:35:24.691Z,22.50
2023-02-05T14:37:59.004Z,20.90
2023-02-05T14:40:35.888Z,20.20
2023-02-05T14:43:31.874Z,21.70
2023-02-05T14:46:19.958Z,17.60
2023-02-05T14:48:48.825Z,20.90
2023-02-05T14:51:38.070Z,11.90
2023-02-05T14:54:18.175Z,11.30
2023-02-05T14:57:09.330Z,16.80
2023-02-05T14:59:45.637Z,32.80
2023-02-05T15:02:51.639Z,20.70
2023-02-05T15:05:30.651Z,15.40
2023-02-05T15:08:10.278Z,14.00
2023-02-05T15:11:03.809Z,17.40
2023-02-05T15:13:32.697Z,11.80
2023-02-05T15:16:13.032Z,14.60
2023-02-05T15:18:48.231Z,12.40
2023-02-05T15:21:28.843Z,27.90
2023-02-05T15:24:18.179Z,64.50
2023-02-05T15:27:01.033Z,17.20
2023-02-05T15:29:35.751Z,16.10
2023-02-05T15:32:14.589Z,16.00
2023-02-05T15:34:52.510Z,13.20
2023-02-05T15:37:38.979Z,21.20
2023-02-05T15:40:19.394Z,27.90
2023-02-05T15:42:53.843Z,23.80
2023-02-05T15:45:26.789Z,12.60
2023-02-05T15:48:11.286Z,10.70
2023-02-05T15:50:53.066Z,10.10
2023-02-05T15:53:45.961Z,38.00
2023-02-05T15:56:20.144Z,54.90
2023-02-05T15:58:59.023Z,24.60
2023-02-05T16:01:34.143Z,10.30
2023-02-05T16:04:02.715Z,7.20
2023-02-05T16:06:30.960Z,6.10
2023-02-05T16:08:59.041Z,18.50
2023-02-05T16:11:28.534Z,20.20
2023-02-05T16:14:16.733Z,43.30
2023-02-05T16:16:47.820Z,39.50
2023-02-05T16:19:21.849Z,32.90
2023-02-05T16:22:04.536Z,16.60
2023-02-05T16:27:15.866Z,51.30
2023-02-05T16:30:05.420Z,30.60
2023-02-05T16:32:44.021Z,56.00
2023-02-05T16:35:30.885Z,48.80
2023-02-05T16:38:01.064Z,30.00
2023-02-05T16:40:46.185Z,56.10
2023-02-05T16:43:20.650Z,56.00
2023-02-05T16:46:21.787Z,46.20
2023-02-05T16:48:53.274Z,48.30
2023-02-05T16:51:27.449Z,46.40
2023-02-05T16:53:55.739Z,39.70
2023-02-05T16:56:27.311Z,43.90
2023-02-05T16:58:59.382Z,45.50
2023-02-05T17:01:36.293Z,36.40
2023-02-05T17:04:05.431Z,29.90
2023-02-05T17:06:36.582Z,30.40
2023-02-05T17:09:05.789Z,26.70
2023-02-05T17:11:33.968Z,108.90
2023-02-05T17:14:29.666Z,50.70
2023-02-05T17:17:17.111Z,31.10
2023-02-05T17:20:01.862Z,19.60
2023-02-05T17:22:30.642Z,22.00
2023-02-05T17:24:59.333Z,30.00
2023-02-05T17:27:32.651Z,32.40
2023-02-05T17:30:00.907Z,30.00
2023-02-05T17:32:31.678Z,26.90
2023-02-05T17:35:00.593Z,31.90
2023-02-05T17:37:28.910Z,34.60
2023-02-05T17:39:58.013Z,32.40
2023-02-05T17:42:26.857Z,33.30
2023-02-05T17:44:56.205Z,26.50
2023-02-05T17:47:24.374Z,19.60
2023-02-05T17:49:52.635Z,20.50
2023-02-05T17:52:20.917Z,23.60
2023-02-05T17:54:48.991Z,24.20
2023-02-05T17:57:19.910Z,27.50
2023-02-05T17:59:48.933Z,23.00
2023-02-05T18:02:17.682Z,22.70
2023-02-05T18:04:46.184Z,22.60
2023-02-05T18:07:23.325Z,37.10
2023-02-05T18:09:51.542Z,38.60
2023-02-05T18:12:19.874Z,33.80
2023-02-05T18:14:48.198Z,40.30
2023-02-05T18:17:16.601Z,40.60
2023-02-05T18:19:44.792Z,32.50
2023-02-05T18:22:13.106Z,29.20
2023-02-05T18:24:41.201Z,30.20
2023-02-05T18:27:09.898Z,34.70
2023-02-05T18:29:39.190Z,33.50
2023-02-05T18:32:07.873Z,33.80
2023-02-05T18:34:35.988Z,29.90
2023-02-05T18:37:04.113Z,30.60
2023-02-05T18:39:32.596Z,33.70
2023-02-05T18:42:01.090Z,30.90
2023-02-05T18:44:29.252Z,32.60
2023-02-05T18:46:57.665Z,33.80
2023-02-05T18:49:25.833Z,30.90
2023-02-05T18:51:53.979Z,34.70
2023-02-05T18:54:22.046Z,48.10
2023-02-05T18:56:51.789Z,35.60
2023-02-05T18:59:21.348Z,31.40
2023-02-05T19:01:50.462Z,28.10
2023-02-05T19:04:18.780Z,32.00
2023-02-05T19:06:52.379Z,30.30
2023-02-05T19:09:22.461Z,30.50
2023-02-05T19:11:51.450Z,34.20
2023-02-05T19:14:21.019Z,32.90
2023-02-05T19:16:50.035Z,29.10
2023-02-05T19:19:21.825Z,34.00
2023-02-05T19:21:53.590Z,32.70
2023-02-05T19:24:22.511Z,32.40
2023-02-05T19:26:51.444Z,29.40
2023-02-05T19:29:20.791Z,29.00
2023-02-05T19:31:49.835Z,27.90
2023-02-05T19:34:18.153Z,28.90
2023-02-05T19:36:46.299Z,33.00
2023-02-05T19:39:15.080Z,24.70
2023-02-05T19:41:48.572Z,30.10
2023-02-05T19:44:17.550Z,25.20
2023-02-05T19:46:46.809Z,27.10
2023-02-05T19:49:18.363Z,26.30
2023-02-05T19:51:52.304Z,31.20
2023-02-05T19:54:21.718Z,25.80
2023-02-05T19:56:50.580Z,25.80
2023-02-05T19:59:19.046Z,25.20
2023-02-05T20:01:48.023Z,27.10
2023-02-05T20:04:19.327Z,25.90
2023-02-05T20:06:48.231Z,28.50
2023-02-05T20:09:17.451Z,22.40
2023-02-05T20:11:52.808Z,22.20
2023-02-05T20:14:21.972Z,20.50
2023-02-05T20:16:52.154Z,23.40
2023-02-05T20:19:20.838Z,25.80
2023-02-05T20:21:49.449Z,27.20
2023-02-05T20:24:17.795Z,23.30
2023-02-05T20:26:48.547Z,31.90
2023-02-05T20:29:36.152Z,28.70
2023-02-05T20:32:04.800Z,25.20
2023-02-05T20:34:36.046Z,26.90
2023-02-05T20:37:06.831Z,24.80
2023-02-05T20:39:38.666Z,25.20
2023-02-05T20:42:07.221Z,26.90
2023-02-05T20:44:36.412Z,28.70
2023-02-05T20:47:07.429Z,28.80
2023-02-05T20:49:36.793Z,25.90
2023-02-05T20:52:05.224Z,28.90
2023-02-05T20:54:34.213Z,28.00
2023-02-05T20:57:02.603Z,27.90
2023-02-05T20:59:36.779Z,24.30
2023-02-05T21:02:05.277Z,24.50
2023-02-05T21:04:33.462Z,24.80
2023-02-05T21:07:01.741Z,27.80
2023-02-05T21:09:29.813Z,27.90
2023-02-05T21:11:57.990Z,23.10
2023-02-05T21:14:26.159Z,24.80
2023-02-05T21:16:54.439Z,26.50
2023-02-05T21:19:24.767Z,21.80
2023-02-05T21:21:53.240Z,23.60
2023-02-05T21:24:21.675Z,23.20
2023-02-05T21:26:50.248Z,24.60
2023-02-05T21:29:20.558Z,25.10
2023-02-05T21:31:55.658Z,21.70
2023-02-05T21:34:28.239Z,22.80
2023-02-05T21:36:57.800Z,25.40
2023-02-05T21:39:25.917Z,23.70
2023-02-05T21:41:54.529Z,28.10
2023-02-05T21:44:23.694Z,24.80
2023-02-05T21:46:53.868Z,25.70
2023-02-05T21:49:22.210Z,26.70
2023-02-05T21:51:53.273Z,25.70
2023-02-05T21:54:25.706Z,27.20
2023-02-05T21:59:23.198Z,25.00
2023-02-05T22:01:51.726Z,24.50
2023-02-05T22:04:20.467Z,30.60
2023-02-05T22:06:50.292Z,25.50
2023-02-05T22:09:18.760Z,25.20
2023-02-05T22:11:50.202Z,27.10
2023-02-05T22:14:18.816Z,23.70
2023-02-05T22:16:47.001Z,24.00
2023-02-05T22:19:15.131Z,22.70
2023-02-05T22:21:43.333Z,24.70
2023-02-05T22:24:15.287Z,21.90
2023-02-05T22:26:44.793Z,24.60
2023-02-05T22:29:16.004Z,20.90
2023-02-05T22:31:44.922Z,23.90
2023-02-05T22:34:13.184Z,25.00
2023-02-05T22:36:41.557Z,19.10
2023-02-05T22:39:10.284Z,22.60
2023-02-05T22:41:41.704Z,24.30
2023-02-05T22:44:11.411Z,22.80
2023-02-05T22:46:42.276Z,22.30
2023-02-05T22:49:12.260Z,20.60
2023-02-05T22:51:41.047Z,18.30
2023-02-05T22:54:11.688Z,17.50
2023-02-05T22:56:39.855Z,18.80
2023-02-05T22:59:08.995Z,18.30
2023-02-05T23:01:39.059Z,19.90
2023-02-05T23:04:08.826Z,17.60
2023-02-05T23:06:39.855Z,20.90
2023-02-05T23:09:11.292Z,18.90
2023-02-05T23:11:39.878Z,18.60
2023-02-05T23:14:08.738Z,21.50
2023-02-05T23:16:42.168Z,17.10
2023-02-05T23:19:14.468Z,17.30
2023-02-05T23:21:42.580Z,14.50
2023-02-05T23:24:11.360Z,19.20
2023-02-05T23:26:44.048Z,14.50
2023-02-05T23:29:14.266Z,18.00
2023-02-05T23:31:42.801Z,16.30
2023-02-05T23:34:11.442Z,15.30
2023-02-05T23:36:39.712Z,15.30
2023-02-05T23:39:08.284Z,15.80
2023-02-05T23:41:36.807Z,15.70
2023-02-05T23:44:08.531Z,16.50
2023-02-05T23:46:37.360Z,15.40
2023-02-05T23:49:06.532Z,14.70
2023-02-05T23:51:34.966Z,16.00
2023-02-05T23:54:04.357Z,11.40
2023-02-05T23:56:32.489Z,16.00
2023-02-05T23:59:01.377Z,16.70
